createdAt,value
2018-06-03T00:00:00.018Z,29.20
2018-06-03T00:02:28.027Z,26.23
2018-06-03T00:04:57.390Z,29.30
2018-06-03T00:07:26.082Z,28.30
2018-06-03T00:09:54.870Z,30.50
2018-06-03T00:12:22.905Z,30.27
2018-06-03T00:14:50.918Z,27.23
2018-06-03T00:17:18.943Z,29.00
2018-06-03T00:19:48.314Z,29.17
2018-06-03T00:22:16.638Z,29.00
2018-06-03T00:24:45.184Z,30.77
2018-06-03T00:27:14.870Z,30.37
2018-06-03T00:29:43.782Z,30.93
2018-06-03T00:32:12.206Z,31.43
2018-06-03T00:34:41.995Z,28.70
2018-06-03T00:37:10.309Z,29.27
2018-06-03T00:39:39.329Z,31.70
2018-06-03T00:42:07.586Z,36.57
2018-06-03T00:44:36.637Z,33.57
2018-06-03T00:47:05.678Z,35.10
2018-06-03T00:49:33.943Z,33.97
2018-06-03T00:52:02.963Z,36.57
2018-06-03T00:54:32.358Z,36.80
2018-06-03T00:57:07.798Z,34.73
2018-06-03T00:59:36.703Z,32.33
2018-06-03T01:02:04.946Z,34.53
2018-06-03T01:04:33.207Z,36.03
2018-06-03T01:07:02.583Z,35.10
2018-06-03T01:09:31.149Z,34.10
2018-06-03T01:12:00.894Z,34.00
2018-06-03T01:14:29.150Z,34.70
2018-06-03T01:16:58.185Z,32.97
2018-06-03T01:19:27.212Z,35.77
2018-06-03T01:21:55.445Z,36.13
2018-06-03T01:24:23.710Z,38.10
2018-06-03T01:26:51.967Z,39.83
2018-06-03T01:29:20.216Z,38.57
2018-06-03T01:31:48.483Z,37.00
2018-06-03T01:34:16.760Z,39.30
2018-06-03T01:36:45.021Z,38.40
2018-06-03T01:39:14.031Z,40.00
2018-06-03T01:41:42.284Z,41.20
2018-06-03T01:44:11.143Z,36.80
2018-06-03T01:46:40.524Z,36.40
2018-06-03T01:49:08.759Z,35.30
2018-06-03T01:51:38.541Z,36.00
2018-06-03T01:54:06.811Z,35.83
2018-06-03T01:56:35.085Z,39.47
2018-06-03T01:59:03.328Z,41.60
2018-06-03T02:01:31.598Z,39.47
2018-06-03T02:04:01.207Z,41.40
2018-06-03T02:06:30.686Z,41.40
2018-06-03T02:08:59.581Z,43.03
2018-06-03T02:11:29.208Z,43.47
2018-06-03T02:13:57.744Z,41.90
2018-06-03T02:16:26.397Z,42.37
2018-06-03T02:18:54.651Z,44.97
2018-06-03T02:21:22.908Z,45.27
2018-06-03T02:23:51.148Z,45.60
2018-06-03T02:26:20.191Z,47.57
2018-06-03T02:28:48.443Z,46.37
2018-06-03T02:31:16.691Z,45.37
2018-06-03T02:33:44.985Z,44.73
2018-06-03T02:36:13.215Z,44.43
2018-06-03T02:38:41.451Z,45.40
2018-06-03T02:41:11.778Z,45.30
2018-06-03T02:43:40.051Z,41.70
2018-06-03T02:46:09.061Z,40.90
2018-06-03T02:48:37.329Z,43.00
2018-06-03T02:51:06.371Z,42.00
2018-06-03T02:53:35.951Z,46.03
2018-06-03T02:56:04.502Z,48.10
2018-06-03T02:58:32.940Z,46.10
2018-06-03T03:01:01.180Z,49.70
2018-06-03T03:03:29.811Z,47.37
2018-06-03T03:05:58.074Z,49.30
2018-06-03T03:08:26.361Z,48.60
2018-06-03T03:10:54.627Z,45.60
2018-06-03T03:13:22.892Z,45.37
2018-06-03T03:15:51.150Z,47.03
2018-06-03T03:18:19.421Z,51.00
2018-06-03T03:20:48.800Z,51.20
2018-06-03T03:23:17.070Z,48.03
2018-06-03T03:25:45.324Z,50.00
2018-06-03T03:28:15.455Z,47.30
2018-06-03T03:30:43.571Z,48.03
2018-06-03T03:33:11.881Z,44.10
2018-06-03T03:35:41.475Z,42.77
2018-06-03T03:38:09.585Z,46.30
2018-06-03T03:40:38.612Z,50.17
2018-06-03T03:43:08.397Z,49.27
2018-06-03T03:45:36.665Z,51.80
2018-06-03T03:48:06.335Z,51.07
2018-06-03T03:50:35.841Z,43.80
2018-06-03T03:53:05.112Z,44.20
2018-06-03T03:55:34.138Z,48.47
2018-06-03T03:58:02.384Z,48.87
2018-06-03T04:00:31.411Z,48.80
2018-06-03T04:03:00.816Z,50.00
2018-06-03T04:05:29.066Z,49.67
2018-06-03T04:07:58.831Z,46.60
2018-06-03T04:10:27.083Z,50.40
2018-06-03T04:12:55.349Z,44.17
2018-06-03T04:15:23.606Z,47.97
2018-06-03T04:17:51.864Z,47.23
2018-06-03T04:20:20.145Z,49.27
2018-06-03T04:22:49.539Z,49.43
2018-06-03T04:25:17.800Z,51.17
2018-06-03T04:27:47.567Z,52.57
2018-06-03T04:30:15.845Z,49.53
2018-06-03T04:32:44.876Z,56.87
2018-06-03T04:35:13.896Z,51.60
2018-06-03T04:37:42.159Z,51.70
2018-06-03T04:40:11.778Z,50.70
2018-06-03T04:42:41.055Z,49.37
2018-06-03T04:45:10.663Z,47.60
2018-06-03T04:47:38.796Z,45.97
2018-06-03T04:50:07.055Z,46.07
2018-06-03T04:52:35.288Z,51.83
2018-06-03T04:55:03.589Z,52.10
2018-06-03T04:57:31.799Z,50.73
2018-06-03T05:00:00.042Z,50.77
2018-06-03T05:02:29.443Z,48.27
2018-06-03T05:04:57.769Z,50.20
2018-06-03T05:07:26.006Z,44.37
2018-06-03T05:09:55.403Z,47.80
2018-06-03T05:12:24.403Z,47.57
2018-06-03T05:14:52.646Z,56.17
2018-06-03T05:17:20.911Z,56.57
2018-06-03T05:19:49.944Z,55.87
2018-06-03T05:22:18.178Z,55.87
2018-06-03T05:24:47.207Z,54.90
2018-06-03T05:27:16.231Z,54.00
2018-06-03T05:29:45.234Z,58.43
2018-06-03T05:32:14.865Z,57.70
2018-06-03T05:34:42.970Z,54.20
2018-06-03T05:37:12.613Z,56.60
2018-06-03T05:39:41.520Z,55.30
2018-06-03T05:42:11.118Z,54.43
2018-06-03T05:44:39.231Z,55.33
2018-06-03T05:47:07.494Z,56.50
2018-06-03T05:49:35.747Z,56.63
2018-06-03T05:52:05.521Z,56.03
2018-06-03T05:54:33.779Z,53.17
2018-06-03T05:57:02.035Z,57.93
2018-06-03T05:59:30.270Z,60.50
2018-06-03T06:01:58.538Z,54.73
2018-06-03T06:04:26.796Z,57.60
2018-06-03T06:06:56.179Z,57.00
2018-06-03T06:09:24.454Z,56.70
2018-06-03T06:11:52.719Z,56.90
2018-06-03T06:14:20.954Z,53.70
2018-06-03T06:16:49.211Z,55.07
2018-06-03T06:19:18.985Z,52.77
2018-06-03T06:21:47.217Z,58.80
2018-06-03T06:24:15.478Z,62.27
2018-06-03T06:26:43.747Z,54.13
2018-06-03T06:29:12.058Z,57.83
2018-06-03T06:31:41.065Z,56.40
2018-06-03T06:34:09.296Z,52.60
2018-06-03T06:36:37.549Z,54.33
2018-06-03T06:39:05.803Z,58.40
2018-06-03T06:41:34.483Z,58.10
2018-06-03T06:44:02.699Z,59.37
2018-06-03T06:46:31.731Z,56.80
2018-06-03T06:49:00.771Z,56.27
2018-06-03T06:51:30.364Z,57.67
2018-06-03T06:53:58.503Z,57.87
2018-06-03T06:56:26.759Z,55.83
2018-06-03T06:58:54.998Z,61.33
2018-06-03T07:01:23.258Z,60.80
2018-06-03T07:03:51.524Z,56.27
2018-06-03T07:06:19.811Z,59.50
2018-06-03T07:08:49.415Z,56.47
2018-06-03T07:11:17.566Z,58.30
2018-06-03T07:13:45.823Z,55.23
2018-06-03T07:16:14.080Z,56.03
2018-06-03T07:18:43.692Z,59.17
2018-06-03T07:21:12.228Z,58.00
2018-06-03T07:23:40.491Z,55.00
2018-06-03T07:26:09.515Z,54.53
2018-06-03T07:28:37.756Z,56.47
2018-06-03T07:31:06.030Z,54.13
2018-06-03T07:33:34.266Z,54.07
2018-06-03T07:36:02.499Z,50.77
2018-06-03T07:38:30.762Z,51.10
2018-06-03T07:40:59.028Z,52.10
2018-06-03T07:43:27.281Z,51.07
2018-06-03T07:45:56.680Z,48.80
2018-06-03T07:48:24.938Z,44.10
2018-06-03T07:50:53.590Z,41.53
2018-06-03T07:53:21.863Z,38.17
2018-06-03T07:55:50.889Z,37.10
2018-06-03T07:58:19.149Z,35.30
2018-06-03T08:00:48.159Z,40.00
2018-06-03T08:03:17.203Z,38.17
2018-06-03T08:05:46.811Z,38.50
2018-06-03T08:08:16.539Z,39.63
2018-06-03T08:10:44.800Z,44.00
2018-06-03T08:13:13.048Z,41.93
2018-06-03T08:15:42.212Z,42.60
2018-06-03T08:18:10.492Z,43.33
2018-06-03T08:20:40.241Z,43.30
2018-06-03T08:23:08.499Z,41.37
2018-06-03T08:25:36.753Z,44.20
2018-06-03T08:28:04.999Z,42.07
2018-06-03T08:30:33.254Z,40.77
2018-06-03T08:33:01.524Z,42.50
2018-06-03T08:35:30.955Z,41.77
2018-06-03T08:37:59.204Z,41.83
2018-06-03T08:40:27.458Z,41.27
2018-06-03T08:42:56.123Z,40.27
2018-06-03T08:45:25.887Z,41.40
2018-06-03T08:47:54.139Z,41.47
2018-06-03T08:50:22.404Z,39.00
2018-06-03T08:52:51.425Z,38.73
2018-06-03T08:55:21.031Z,38.47
2018-06-03T08:57:49.953Z,37.87
2018-06-03T09:00:18.235Z,34.57
2018-06-03T09:02:46.514Z,39.03
2018-06-03T09:05:16.165Z,36.90
2018-06-03T09:07:44.274Z,38.90
2018-06-03T09:10:12.566Z,38.67
2018-06-03T09:12:40.825Z,39.77
2018-06-03T09:15:09.475Z,38.33
2018-06-03T09:17:38.847Z,40.53
2018-06-03T09:20:08.509Z,39.47
2018-06-03T09:22:37.046Z,41.60
2018-06-03T09:25:05.332Z,40.90
2018-06-03T09:27:33.573Z,39.40
2018-06-03T09:30:01.826Z,37.30
2018-06-03T09:32:31.603Z,40.77
2018-06-03T09:34:59.908Z,38.13
2018-06-03T09:37:28.164Z,41.63
2018-06-03T09:39:56.422Z,40.50
2018-06-03T09:42:25.471Z,42.73
2018-06-03T09:44:54.130Z,35.90
2018-06-03T09:47:23.808Z,34.30
2018-06-03T09:49:52.458Z,32.50
2018-06-03T09:52:20.690Z,36.63
2018-06-03T09:54:50.449Z,36.83
2018-06-03T09:57:20.058Z,38.87
2018-06-03T09:59:48.645Z,31.70
2018-06-03T10:02:18.253Z,32.03
2018-06-03T10:04:46.781Z,36.53
2018-06-03T10:07:16.385Z,35.60
2018-06-03T10:09:45.286Z,34.17
2018-06-03T10:12:13.552Z,35.63
2018-06-03T10:14:41.811Z,33.53
2018-06-03T10:17:10.067Z,32.67
2018-06-03T10:19:39.482Z,34.73
2018-06-03T10:22:07.759Z,31.97
2018-06-03T10:24:36.019Z,33.20
2018-06-03T10:27:04.342Z,37.00
2018-06-03T10:29:34.094Z,36.60
2018-06-03T10:32:02.342Z,32.97
2018-06-03T10:34:32.106Z,34.27
2018-06-03T10:37:00.403Z,31.87
2018-06-03T10:39:28.659Z,36.10
2018-06-03T10:41:56.903Z,33.10
2018-06-03T10:44:26.525Z,31.77
2018-06-03T10:46:54.665Z,33.13
2018-06-03T10:49:22.922Z,32.63
2018-06-03T10:51:51.946Z,32.07
2018-06-03T10:54:21.048Z,31.97
2018-06-03T10:56:49.262Z,31.93
2018-06-03T10:59:17.541Z,30.83
2018-06-03T11:01:46.217Z,27.80
2018-06-03T11:04:14.488Z,28.63
2018-06-03T11:06:44.089Z,26.63
2018-06-03T11:09:12.239Z,27.20
2018-06-03T11:11:42.130Z,27.00
2018-06-03T11:14:11.930Z,25.10
2018-06-03T11:16:40.195Z,24.90
2018-06-03T11:19:08.517Z,24.07
2018-06-03T11:21:38.106Z,22.17
2018-06-03T11:24:06.308Z,22.70
2018-06-03T11:26:35.050Z,22.90
2018-06-03T11:29:04.525Z,22.37
2018-06-03T11:31:32.916Z,24.37
2018-06-03T11:34:01.284Z,24.90
2018-06-03T11:36:29.755Z,21.70
2018-06-03T11:38:58.032Z,21.67
2018-06-03T11:41:27.027Z,21.10
2018-06-03T11:43:56.052Z,23.57
2018-06-03T11:46:25.578Z,23.83
2018-06-03T11:48:53.831Z,21.53
2018-06-03T11:51:22.191Z,23.00
2018-06-03T11:53:50.486Z,21.97
2018-06-03T11:56:18.673Z,22.03
2018-06-03T11:58:49.982Z,21.80
2018-06-03T12:01:18.251Z,20.10
2018-06-03T12:03:47.878Z,20.50
2018-06-03T12:06:16.415Z,20.50
2018-06-03T12:08:44.670Z,19.70
2018-06-03T12:11:13.300Z,18.43
2018-06-03T12:13:41.797Z,18.73
2018-06-03T12:16:10.614Z,16.43
2018-06-03T12:18:38.892Z,18.53
2018-06-03T12:21:07.170Z,18.27
2018-06-03T12:23:35.466Z,18.73
2018-06-03T12:26:05.314Z,17.63
2018-06-03T12:28:33.903Z,16.63
2018-06-03T12:31:02.079Z,19.10
2018-06-03T12:33:30.350Z,20.13
2018-06-03T12:35:58.665Z,21.27
2018-06-03T12:38:28.233Z,17.70
2018-06-03T12:40:56.342Z,19.20
2018-06-03T12:43:26.543Z,19.57
2018-06-03T12:45:55.070Z,17.30
2018-06-03T12:48:24.462Z,16.90
2018-06-03T12:50:52.951Z,17.80
2018-06-03T12:53:23.066Z,17.60
2018-06-03T12:55:52.840Z,17.00
2018-06-03T12:58:20.992Z,16.33
2018-06-03T13:00:50.921Z,16.17
2018-06-03T13:03:19.276Z,18.50
2018-06-03T13:05:47.522Z,15.67
2018-06-03T13:08:15.774Z,16.30
2018-06-03T13:10:44.470Z,18.40
2018-06-03T13:13:13.122Z,17.73
2018-06-03T13:15:41.394Z,18.73
2018-06-03T13:18:10.427Z,20.03
2018-06-03T13:20:39.043Z,17.00
2018-06-03T13:23:08.040Z,17.87
2018-06-03T13:25:36.538Z,18.30
2018-06-03T13:28:05.911Z,19.90
2018-06-03T13:30:34.182Z,20.40
2018-06-03T13:33:02.506Z,14.77
2018-06-03T13:35:32.186Z,16.70
2018-06-03T13:38:00.331Z,17.90
2018-06-03T13:40:32.030Z,19.30
2018-06-03T13:43:00.687Z,18.90
2018-06-03T13:45:28.955Z,18.50
2018-06-03T13:47:57.228Z,19.43
2018-06-03T13:50:26.838Z,17.60
2018-06-03T13:52:54.971Z,17.70
2018-06-03T13:55:23.235Z,18.43
2018-06-03T13:57:52.247Z,20.60
2018-06-03T14:00:21.285Z,18.70
2018-06-03T14:02:50.912Z,17.67
2018-06-03T14:05:19.809Z,17.13
2018-06-03T14:07:48.070Z,18.43
2018-06-03T14:10:16.338Z,16.23
2018-06-03T14:12:45.923Z,19.17
2018-06-03T14:15:14.047Z,17.73
2018-06-03T14:17:43.070Z,16.50
2018-06-03T14:20:12.472Z,18.33
2018-06-03T14:22:42.087Z,16.10
2018-06-03T14:25:10.607Z,18.17
2018-06-03T14:27:38.866Z,16.40
2018-06-03T14:30:07.131Z,17.17
2018-06-03T14:32:36.737Z,16.90
2018-06-03T14:35:06.011Z,16.90
2018-06-03T14:37:35.038Z,19.60
2018-06-03T14:40:03.330Z,18.77
2018-06-03T14:42:32.332Z,17.70
2018-06-03T14:45:01.733Z,15.87
2018-06-03T14:47:31.338Z,15.47
2018-06-03T14:50:31.071Z,14.60
2018-06-03T14:52:59.665Z,17.60
2018-06-03T14:55:28.604Z,18.77
2018-06-03T14:57:57.568Z,16.20
2018-06-03T15:00:26.267Z,15.70
2018-06-03T15:02:55.103Z,18.87
2018-06-03T15:05:23.831Z,19.73
2018-06-03T15:07:52.482Z,16.07
2018-06-03T15:10:21.362Z,15.23
2018-06-03T15:12:50.349Z,14.70
2018-06-03T15:15:19.100Z,16.80
2018-06-03T15:17:47.947Z,16.63
2018-06-03T15:20:16.725Z,17.47
2018-06-03T15:22:45.339Z,16.03
2018-06-03T15:25:14.313Z,15.00
2018-06-03T15:27:42.933Z,16.47
2018-06-03T15:30:11.869Z,14.27
2018-06-03T15:32:41.007Z,13.43
2018-06-03T15:35:09.773Z,15.10
2018-06-03T15:37:38.438Z,14.40
2018-06-03T15:40:07.547Z,13.80
2018-06-03T15:42:36.798Z,13.17
2018-06-03T15:45:05.999Z,13.77
2018-06-03T15:47:35.168Z,14.53
2018-06-03T15:50:03.927Z,14.07
2018-06-03T15:52:32.588Z,13.53
2018-06-03T15:55:01.468Z,17.53
2018-06-03T15:57:30.487Z,17.50
2018-06-03T15:59:59.470Z,16.07
2018-06-03T16:02:28.467Z,16.87
2018-06-03T16:04:57.286Z,23.50
2018-06-03T16:07:26.311Z,15.73
2018-06-03T16:09:55.100Z,13.00
2018-06-03T16:12:24.002Z,14.20
2018-06-03T16:14:52.755Z,14.40
2018-06-03T16:17:21.603Z,12.40
2018-06-03T16:19:50.357Z,13.43
2018-06-03T16:22:19.264Z,13.10
2018-06-03T16:24:47.983Z,12.40
2018-06-03T16:27:16.838Z,12.30
2018-06-03T16:29:45.546Z,12.30
2018-06-03T16:32:14.180Z,13.30
2018-06-03T16:34:42.801Z,12.53
2018-06-03T16:37:11.660Z,11.57
2018-06-03T16:39:40.368Z,11.50
2018-06-03T16:42:09.234Z,11.00
2018-06-03T16:44:37.950Z,11.10
2018-06-03T16:47:06.549Z,11.33
2018-06-03T16:49:35.179Z,10.20
2018-06-03T16:52:04.075Z,10.10
2018-06-03T16:54:32.862Z,10.53
2018-06-03T16:57:01.472Z,11.80
2018-06-03T16:59:30.298Z,11.47
2018-06-03T17:01:59.281Z,9.40
2018-06-03T17:04:28.226Z,11.40
2018-06-03T17:06:56.991Z,11.33
2018-06-03T17:09:25.647Z,10.60
2018-06-03T17:11:54.230Z,11.43
2018-06-03T17:14:23.087Z,10.87
2018-06-03T17:16:51.835Z,11.60
2018-06-03T17:19:20.427Z,11.33
2018-06-03T17:21:49.018Z,10.03
2018-06-03T17:24:17.851Z,11.17
2018-06-03T17:26:46.577Z,10.23
2018-06-03T17:29:15.416Z,10.67
2018-06-03T17:31:44.171Z,10.20
2018-06-03T17:34:13.034Z,9.87
2018-06-03T17:36:41.988Z,9.20
2018-06-03T17:39:10.958Z,8.50
2018-06-03T17:41:39.942Z,8.70
2018-06-03T17:44:08.671Z,8.67
2018-06-03T17:46:37.279Z,8.77
2018-06-03T17:49:05.874Z,8.90
2018-06-03T17:51:34.710Z,9.43
2018-06-03T17:54:03.473Z,9.13
2018-06-03T17:56:32.095Z,8.60
2018-06-03T17:59:00.695Z,7.20
2018-06-03T18:01:29.534Z,8.07
2018-06-03T18:03:58.246Z,8.20
2018-06-03T18:06:27.078Z,8.40
2018-06-03T18:08:56.693Z,9.17
2018-06-03T18:11:25.592Z,8.87
2018-06-03T18:13:54.530Z,7.83
2018-06-03T18:16:23.255Z,7.20
2018-06-03T18:18:52.097Z,7.47
2018-06-03T18:21:20.828Z,7.80
2018-06-03T18:23:49.402Z,7.67
2018-06-03T18:26:18.342Z,7.47
2018-06-03T18:28:47.058Z,9.00
2018-06-03T18:31:15.664Z,8.13
2018-06-03T18:33:44.295Z,7.57
2018-06-03T18:36:13.163Z,8.37
2018-06-03T18:38:41.849Z,8.47
2018-06-03T18:41:10.417Z,8.50
2018-06-03T18:43:39.055Z,8.17
2018-06-03T18:46:07.889Z,6.97
2018-06-03T18:48:36.613Z,8.40
2018-06-03T18:51:05.386Z,7.43
2018-06-03T18:53:33.975Z,8.30
2018-06-03T18:56:02.556Z,7.67
2018-06-03T18:58:31.384Z,6.33
2018-06-03T19:01:00.352Z,8.17
2018-06-03T19:03:29.074Z,6.50
2018-06-03T19:05:57.935Z,7.23
2018-06-03T19:08:26.933Z,7.53
2018-06-03T19:10:55.649Z,7.23
2018-06-03T19:13:24.517Z,8.37
2018-06-03T19:15:53.266Z,9.17
2018-06-03T19:18:21.894Z,8.73
2018-06-03T19:20:50.780Z,8.60
2018-06-03T19:23:19.513Z,9.00
2018-06-03T19:25:48.136Z,8.20
2018-06-03T19:28:16.972Z,7.50
2018-06-03T19:30:45.944Z,8.00
2018-06-03T19:33:14.939Z,8.13
2018-06-03T19:35:43.805Z,9.53
2018-06-03T19:38:12.545Z,8.33
2018-06-03T19:40:41.367Z,7.60
2018-06-03T19:43:10.365Z,9.17
2018-06-03T19:45:39.125Z,8.80
2018-06-03T19:48:07.933Z,9.23
2018-06-03T19:50:36.658Z,9.90
2018-06-03T19:53:05.283Z,9.33
2018-06-03T19:55:34.132Z,9.50
2018-06-03T19:58:03.084Z,9.13
2018-06-03T20:00:31.857Z,11.20
2018-06-03T20:03:00.689Z,9.97
2018-06-03T20:05:29.430Z,9.60
2018-06-03T20:07:58.054Z,10.37
2018-06-03T20:10:26.890Z,10.40
2018-06-03T20:12:55.859Z,9.33
2018-06-03T20:15:24.816Z,10.93
2018-06-03T20:17:54.220Z,10.57
2018-06-03T20:20:23.502Z,10.97
2018-06-03T20:22:52.230Z,10.73
2018-06-03T20:25:20.830Z,11.40
2018-06-03T20:27:49.686Z,11.47
2018-06-03T20:30:18.675Z,10.00
2018-06-03T20:32:47.422Z,10.50
2018-06-03T20:35:16.276Z,10.57
2018-06-03T20:37:45.265Z,10.50
2018-06-03T20:40:14.261Z,10.77
2018-06-03T20:42:43.229Z,11.57
2018-06-03T20:45:12.202Z,12.07
2018-06-03T20:47:40.950Z,11.97
2018-06-03T20:50:09.813Z,12.23
2018-06-03T20:52:38.795Z,11.20
2018-06-03T20:55:07.533Z,11.40
2018-06-03T20:57:36.150Z,11.87
2018-06-03T21:00:04.982Z,12.10
2018-06-03T21:02:33.952Z,12.03
2018-06-03T21:05:02.699Z,13.20
2018-06-03T21:07:31.578Z,12.23
2018-06-03T21:10:00.309Z,12.87
2018-06-03T21:12:29.012Z,13.77
2018-06-03T21:14:57.593Z,13.60
2018-06-03T21:17:26.437Z,13.20
2018-06-03T21:19:55.200Z,12.80
2018-06-03T21:22:24.055Z,14.37
2018-06-03T21:24:53.033Z,13.60
2018-06-03T21:27:21.750Z,13.77
2018-06-03T21:29:50.576Z,13.80
2018-06-03T21:32:19.486Z,13.77
2018-06-03T21:34:48.078Z,13.83
2018-06-03T21:37:16.941Z,13.13
2018-06-03T21:39:45.680Z,13.40
2018-06-03T21:42:14.276Z,14.50
2018-06-03T21:44:43.122Z,14.20
2018-06-03T21:47:11.859Z,14.00
2018-06-03T21:49:40.475Z,13.63
2018-06-03T21:52:09.299Z,15.00
2018-06-03T21:54:38.235Z,13.57
2018-06-03T21:57:06.958Z,13.80
2018-06-03T21:59:35.786Z,15.47
2018-06-03T22:02:04.526Z,14.17
2018-06-03T22:04:33.124Z,14.23
2018-06-03T22:07:01.962Z,14.70
2018-06-03T22:09:30.953Z,14.30
2018-06-03T22:11:59.649Z,16.20
2018-06-03T22:14:28.463Z,15.23
2018-06-03T22:16:57.434Z,15.60
2018-06-03T22:19:26.390Z,14.40
2018-06-03T22:21:55.342Z,14.40
2018-06-03T22:24:24.107Z,14.70
2018-06-03T22:26:52.995Z,14.20
2018-06-03T22:29:21.930Z,14.47
2018-06-03T22:31:50.677Z,16.00
2018-06-03T22:34:19.536Z,15.37
2018-06-03T22:36:48.246Z,16.40
2018-06-03T22:39:16.844Z,15.77
2018-06-03T22:41:45.434Z,14.93
2018-06-03T22:44:14.314Z,14.67
2018-06-03T22:46:43.080Z,13.77
2018-06-03T22:49:11.883Z,15.53
2018-06-03T22:51:40.835Z,14.70
2018-06-03T22:54:09.570Z,15.30
2018-06-03T22:56:43.707Z,14.63
2018-06-03T22:59:12.536Z,13.17
2018-06-03T23:01:41.274Z,14.13
2018-06-03T23:04:09.877Z,15.07
2018-06-03T23:06:38.720Z,15.40
2018-06-03T23:09:07.690Z,16.30
2018-06-03T23:11:36.414Z,15.07
2018-06-03T23:14:05.213Z,14.53
2018-06-03T23:16:33.944Z,14.47
2018-06-03T23:19:02.546Z,14.97
2018-06-03T23:21:31.372Z,14.27
2018-06-03T23:24:00.354Z,16.67
2018-06-03T23:26:29.842Z,14.77
2018-06-03T23:28:58.705Z,14.20
2018-06-03T23:31:27.669Z,15.40
2018-06-03T23:33:56.627Z,14.60
2018-06-03T23:36:25.326Z,15.80
2018-06-03T23:38:54.178Z,14.90
2018-06-03T23:41:23.132Z,15.50
2018-06-03T23:43:51.822Z,15.50
2018-06-03T23:46:20.633Z,16.47
2018-06-03T23:48:49.346Z,15.53
2018-06-03T23:51:17.928Z,16.17
2018-06-03T23:53:46.765Z,15.43
2018-06-03T23:56:15.699Z,16.07
2018-06-03T23:58:44.409Z,16.93
